Flight Track Log - Related Links

Times and Time Zones

All times are in EDT time to prevent confusion due to time zone crossing. See the UAL4679 flight status page for this flight to view local times or setup timezone preferences in your user account.

Time Position Orientation Groundspeed Altitude Reporting Facility
EDT Latitude Longitude Course Direction KTS MPH feet Rate Location/Type
Wed 08:05:53 AM 41.3917 -81.8922 251° West 175 201 1,600  Level Cleveland Center
Wed 08:06:18 AM 41.3853 -81.9172 251° West 185 213 2,400 1,984 Climbing Cleveland Center
Wed 08:07:57 AM 41.3625 -82.0606 258° West 273 314 5,700 1,962 Climbing Cleveland Center
Wed 08:08:57 AM 41.3531 -82.1489 262° West 273 314 7,600 2,050 Climbing Cleveland Center
Wed 08:09:57 AM 41.3411 -82.2481 261° West 278 320 9,800 1,700 Climbing Cleveland Center
Wed 08:10:57 AM 41.3269 -82.3611 261° West 298 343 11,000 1,100 Climbing Cleveland Center
Wed 08:11:57 AM 41.3125 -82.4878 261° West 330 380 12,000 1,050 Climbing Cleveland Center
Wed 08:12:57 AM 41.2956 -82.6200 260° West 360 414 13,100 1,250 Climbing Cleveland Center
Wed 08:13:57 AM 41.2764 -82.7575 260° West 370 426 14,500 1,400 Climbing Cleveland Center
Wed 08:14:57 AM 41.2611 -82.8953 262° West 377 434 15,900 1,400 Climbing Cleveland Center
Wed 08:15:57 AM 41.3083 -83.0267 296° West 352 405 17,300 1,250 Climbing Cleveland Center
Wed 08:16:57 AM 41.4072 -83.0858 336° Northwest 352 405 18,400 1,200 Climbing Cleveland Center
Wed 08:17:57 AM 41.5000 -83.1394 337° Northwest 358 412 19,700 1,250 Climbing Cleveland Center
Wed 08:18:57 AM 41.5986 -83.1961 337° Northwest 372 428 20,900 1,100 Climbing Cleveland Center
Wed 08:19:57 AM 41.6975 -83.2531 337° Northwest 377 434 21,900 550 Climbing Cleveland Center
Wed 08:20:57 AM 41.8022 -83.3158 336° Northwest 382 440 22,000 50 Climbing Cleveland Center
Wed 08:21:57 AM 41.9133 -83.3792 337° Northwest 402 463 22,000  Level Cleveland Center
Wed 08:22:57 AM 42.0264 -83.4483 336° Northwest 434 499 22,000  Level Cleveland Center
Wed 08:23:57 AM 42.1094 -83.5417 320° Northwest 441 507 22,000  Level Cleveland Center
Wed 08:24:57 AM 42.2061 -83.6697 316° Northwest 441 507 22,000  Level Cleveland Center
Wed 08:25:57 AM 42.2947 -83.7861 316° Northwest 441 507 22,000  Level Cleveland Center
Wed 08:26:57 AM 42.3831 -83.9003 316° Northwest 441 507 22,000  Level Cleveland Center
Wed 08:27:57 AM 42.4694 -84.0147 316° Northwest 441 507 22,000  Level Cleveland Center
Wed 08:28:57 AM 42.5578 -84.1294 316° Northwest 441 507 22,000  Level Cleveland Center
Wed 08:29:57 AM 42.6439 -84.2417 316° Northwest 441 507 22,000  Level Cleveland Center
Wed 08:30:57 AM 42.7197 -84.3450 315° West 441 507 22,000  Level Cleveland Center
Wed 08:31:57 AM 42.8078 -84.4608 316° Northwest 436 502 22,000  Level Cleveland Center
Wed 08:33:19 AM 42.9267 -84.6178 316° Northwest 428 493 22,000  Level Chicago Center
Wed 08:34:21 AM 43.0097 -84.7331 315° West 426 490 22,000  Level Chicago Center
Wed 08:35:22 AM 43.0939 -84.8469 315° West 427 491 22,000  Level Chicago Center
Wed 08:36:24 AM 43.1425 -84.9886 295° West 419 482 22,000  Level Chicago Center
Wed 08:37:26 AM 43.1486 -85.1478 273° West 419 482 22,000  Level Chicago Center
Wed 08:38:28 AM 43.1528 -85.3378 272° West 418 481 22,000  Level Chicago Center
Wed 08:39:30 AM 43.1572 -85.4964 272° West 419 482 22,000  Level Chicago Center
Wed 08:40:32 AM 43.1611 -85.6550 272° West 420 483 22,000  Level Chicago Center
Wed 08:41:33 AM 43.1653 -85.8133 272° West 421 484 22,000  Level Chicago Center
Wed 08:42:35 AM 43.1683 -85.9700 272° West 422 486 22,000 -145 Level Chicago Center
Wed 08:43:37 AM 43.1686 -86.1581 270° West 423 487 21,700 -968 Descending Chicago Center
Wed 08:44:39 AM 43.1658 -86.3075 269° West 399 459 20,000 -1,659 Descending Chicago Center
Wed 08:45:40 AM 43.1631 -86.4553 269° West 390 449 18,300 -1,610 Descending Chicago Center
Wed 08:46:42 AM 43.1603 -86.5983 269° West 381 438 16,700 -1,597 Descending Chicago Center
Wed 08:47:44 AM 43.1572 -86.7400 268° West 375 432 15,000 -1,317 Descending Chicago Center
Wed 08:48:45 AM 43.1536 -86.9008 268° West 354 407 14,000 -732 Descending Chicago Center
Wed 08:49:47 AM 43.1503 -87.0256 268° West 327 376 13,500 -1,016 Descending Chicago Center
Wed 08:50:49 AM 43.1283 -87.1258 253° West 280 322 11,900 -1,512 Descending Chicago Center
Wed 08:51:50 AM 43.1061 -87.2208 252° West 265 305 10,400 -1,463 Descending Chicago Center
Wed 08:52:52 AM 43.0856 -87.3075 252° West 244 281 8,900 -1,452 Descending Chicago Center
Wed 08:53:54 AM 43.0625 -87.4022 252° West 237 273 7,400 -1,355 Descending Chicago Center
Wed 08:54:56 AM 43.0411 -87.4939 252° West 250 288 6,100 -1,171 Descending Chicago Center
Wed 08:55:57 AM 43.0197 -87.5817 252° West 245 282 5,000 -1,024 Descending Chicago Center
Wed 08:56:59 AM 43.0017 -87.6575 252° West 216 249 4,000 -1,065 Descending Chicago Center
Wed 08:58:01 AM 42.9853 -87.7236 251° West 187 215 2,800 -968 Descending Chicago Center
Wed 08:59:03 AM 42.9694 -87.7933 253° West 175 201 2,000 -634 Descending Chicago Center
Wed 09:00:04 AM 42.9581 -87.8386 251° West 144 166 1,500 -341 Descending Chicago Center
Wed 09:01:06 AM 42.9489 -87.8742 251° West 139 160 1,300 -194 Descending Chicago Center
Wed 09:03:00 AM 42.9333 -87.8833 236° Southwest  Level FlightAware Approximate

Login

Don't have an account? Register now (free) for customized features, flight alerts, and more!